Time;durP1;ratioP1;P1;durP2;ratioP2;P2;SDS_P1;SDS_P2;PMS_P1;PMS_P2;Temp;Humidity;BMP_temperature;BMP_pressure;BME280_temperature;BME280_humidity;BME280_pressure;Samples;Min_cycle;Max_cycle;Signal;HPM_P1;HPM_P2
2022/07/08 00:00:52;;;;;;;;;;;25.00;41.70;;;;;;8462805;28;20408;-43
2022/07/08 00:04:53;;;;;;;;;;;25.00;41.80;;;;;;8462250;28;19996;-43
2022/07/08 00:08:54;;;;;;;;;;;25.00;41.80;;;;;;8462697;28;19908;-43
2022/07/08 00:12:55;;;;;;;;;;;24.90;41.70;;;;;;8462732;28;19966;-43
2022/07/08 00:16:55;;;;;;;;;;;24.90;41.70;;;;;;8461999;28;19911;-43
2022/07/08 00:20:55;;;;;;;;;;;24.90;41.70;;;;;;8465694;28;19918;-43
2022/07/08 00:24:56;;;;;;;;;;;24.90;41.80;;;;;;8468625;28;19908;-43
2022/07/08 00:28:56;;;;;;;;;;;24.90;41.80;;;;;;8467981;28;19911;-43
2022/07/08 00:32:57;;;;;;;;;;;24.90;41.80;;;;;;8468438;28;20326;-43
2022/07/08 00:36:57;;;;;;;;;;;24.90;41.80;;;;;;8468441;28;19940;-43
2022/07/08 00:40:58;;;;;;;;;;;24.90;41.80;;;;;;8467494;28;19915;-43
2022/07/08 00:44:58;;;;;;;;;;;24.90;41.80;;;;;;8449673;28;19908;-43
2022/07/08 00:48:59;;;;;;;;;;;24.90;41.80;;;;;;8467954;28;19990;-43
2022/07/08 00:52:59;;;;;;;;;;;24.80;41.80;;;;;;8467347;28;19963;-43
2022/07/08 00:57:00;;;;;;;;;;;24.80;41.80;;;;;;8467527;28;20375;-43
2022/07/08 01:01:01;;;;;;;;;;;24.80;41.80;;;;;;8467551;28;19911;-42
2022/07/08 01:05:01;;;;;;;;;;;24.80;41.80;;;;;;8466969;28;20330;-44
2022/07/08 01:09:02;;;;;;;;;;;24.80;41.80;;;;;;8465871;28;19916;-42
2022/07/08 01:13:03;;;;;;;;;;;24.70;41.80;;;;;;8467308;28;19951;-43
2022/07/08 01:17:04;;;;;;;;;;;24.70;41.80;;;;;;8466416;28;20365;-43
2022/07/08 01:21:04;;;;;;;;;;;24.80;41.80;;;;;;8466665;28;20002;-43
2022/07/08 01:25:05;;;;;;;;;;;24.70;41.80;;;;;;8466622;28;19908;-43
2022/07/08 01:29:06;;;;;;;;;;;24.70;41.80;;;;;;8466067;28;20006;-43
2022/07/08 01:33:06;;;;;;;;;;;24.70;41.80;;;;;;8466160;28;19924;-43
2022/07/08 01:37:07;;;;;;;;;;;24.70;41.80;;;;;;8466103;28;20291;-42
2022/07/08 01:41:07;;;;;;;;;;;24.70;41.80;;;;;;8465593;28;19916;-44
2022/07/08 01:45:08;;;;;;;;;;;24.70;41.90;;;;;;8465899;28;19918;-43
2022/07/08 01:49:12;;;;;;;;;;;24.70;41.90;;;;;;8465815;28;19912;-42
2022/07/08 01:53:13;;;;;;;;;;;24.60;41.80;;;;;;8465264;28;20284;-43
2022/07/08 01:57:13;;;;;;;;;;;24.70;41.90;;;;;;8465795;28;19912;-43
2022/07/08 02:01:14;;;;;;;;;;;24.60;41.90;;;;;;8465366;28;19908;-43
2022/07/08 02:05:14;;;;;;;;;;;24.60;41.80;;;;;;8464675;28;19915;-44
2022/07/08 02:09:15;;;;;;;;;;;24.60;41.90;;;;;;8465210;28;20422;-44
2022/07/08 02:13:16;;;;;;;;;;;24.60;41.90;;;;;;8465106;28;19984;-44
2022/07/08 02:17:17;;;;;;;;;;;24.60;41.90;;;;;;8464397;28;19912;-43
2022/07/08 02:21:18;;;;;;;;;;;24.60;41.90;;;;;;8464713;28;19911;-44
2022/07/08 02:25:19;;;;;;;;;;;24.60;41.90;;;;;;8464783;28;20079;-44
2022/07/08 02:29:19;;;;;;;;;;;24.60;41.90;;;;;;8464138;28;19965;-44
2022/07/08 02:33:20;;;;;;;;;;;24.60;42.00;;;;;;8464606;28;19927;-44
2022/07/08 02:37:20;;;;;;;;;;;24.60;41.90;;;;;;8464405;28;20441;-43
2022/07/08 02:41:21;;;;;;;;;;;24.50;41.90;;;;;;8463522;28;20299;-43
2022/07/08 02:45:21;;;;;;;;;;;24.50;41.90;;;;;;8463896;28;19916;-43
2022/07/08 02:49:22;;;;;;;;;;;24.50;41.90;;;;;;8464312;28;19908;-45
2022/07/08 02:53:23;;;;;;;;;;;24.50;41.90;;;;;;8463497;28;20296;-43
2022/07/08 02:57:23;;;;;;;;;;;24.50;42.00;;;;;;8463958;28;19912;-43
2022/07/08 03:01:24;;;;;;;;;;;24.50;42.00;;;;;;8463180;28;20006;-43
2022/07/08 03:05:24;;;;;;;;;;;24.50;42.00;;;;;;8463465;28;19911;-44
2022/07/08 03:09:25;;;;;;;;;;;24.50;42.00;;;;;;8463582;28;19969;-44
2022/07/08 03:13:25;;;;;;;;;;;24.50;42.00;;;;;;8462783;28;20436;-43
2022/07/08 03:17:25;;;;;;;;;;;24.50;42.00;;;;;;8463615;28;19928;-43
2022/07/08 03:21:26;;;;;;;;;;;24.50;42.00;;;;;;8463415;28;19954;-43
2022/07/08 03:25:27;;;;;;;;;;;24.50;42.00;;;;;;8462707;28;20368;-43
2022/07/08 03:29:27;;;;;;;;;;;24.50;42.00;;;;;;8463565;28;19907;-43
2022/07/08 03:33:29;;;;;;;;;;;24.50;42.00;;;;;;8463050;28;19919;-45
2022/07/08 03:37:29;;;;;;;;;;;24.50;42.00;;;;;;8462307;28;19922;-43
2022/07/08 03:41:30;;;;;;;;;;;24.40;42.00;;;;;;8463266;28;19911;-44
2022/07/08 03:45:30;;;;;;;;;;;24.40;42.00;;;;;;8462976;28;19922;-43
2022/07/08 03:49:31;;;;;;;;;;;24.40;42.50;;;;;;8462713;28;19947;-43
2022/07/08 03:53:31;;;;;;;;;;;24.40;42.00;;;;;;8464037;28;20360;-43
2022/07/08 03:57:32;;;;;;;;;;;24.40;42.00;;;;;;8469587;28;19916;-44
2022/07/08 04:01:32;;;;;;;;;;;24.40;42.00;;;;;;8468787;28;20364;-44
2022/07/08 04:05:32;;;;;;;;;;;24.40;42.00;;;;;;8467977;28;19919;-44
2022/07/08 04:09:33;;;;;;;;;;;24.40;42.00;;;;;;8469483;28;19908;-42
2022/07/08 04:13:33;;;;;;;;;;;24.40;42.00;;;;;;8468378;28;19962;-44
2022/07/08 04:17:34;;;;;;;;;;;24.40;42.00;;;;;;8468798;28;19911;-44
2022/07/08 04:21:35;;;;;;;;;;;24.40;42.00;;;;;;8468744;28;19911;-44
2022/07/08 04:25:35;;;;;;;;;;;24.30;42.00;;;;;;8468285;28;20304;-43
2022/07/08 04:29:36;;;;;;;;;;;24.30;42.00;;;;;;8468948;28;20383;-43
2022/07/08 04:33:36;;;;;;;;;;;24.30;42.00;;;;;;8468213;28;20002;-43
2022/07/08 04:37:37;;;;;;;;;;;24.30;42.00;;;;;;8468009;28;19915;-44
2022/07/08 04:41:37;;;;;;;;;;;24.30;42.00;;;;;;8468570;28;19912;-43
2022/07/08 04:45:38;;;;;;;;;;;24.30;42.00;;;;;;8468115;28;19911;-43
2022/07/08 04:49:38;;;;;;;;;;;24.30;42.00;;;;;;8467843;28;20076;-42
2022/07/08 04:53:39;;;;;;;;;;;24.30;42.00;;;;;;8468016;28;20397;-43
2022/07/08 04:57:39;;;;;;;;;;;24.30;42.00;;;;;;8467776;28;19915;-43
2022/07/08 05:01:40;;;;;;;;;;;24.30;42.00;;;;;;8467355;28;20268;-43
2022/07/08 05:05:40;;;;;;;;;;;24.30;42.10;;;;;;8466777;28;19966;-43
2022/07/08 05:09:41;;;;;;;;;;;24.30;42.10;;;;;;8467693;28;19919;-44
2022/07/08 05:13:41;;;;;;;;;;;24.30;42.10;;;;;;8466775;28;19924;-43
2022/07/08 05:17:41;;;;;;;;;;;24.30;42.00;;;;;;8467140;28;19926;-43
2022/07/08 05:21:42;;;;;;;;;;;24.30;42.00;;;;;;8466799;28;19912;-43
2022/07/08 05:25:42;;;;;;;;;;;24.30;42.00;;;;;;8466259;28;19916;-43
2022/07/08 05:29:43;;;;;;;;;;;24.30;41.90;;;;;;8466697;28;19907;-43
2022/07/08 05:33:43;;;;;;;;;;;24.50;41.70;;;;;;8466456;28;19926;-43
2022/07/08 05:37:44;;;;;;;;;;;24.50;41.50;;;;;;8465914;28;20282;-43
2022/07/08 05:41:45;;;;;;;;;;;24.60;41.40;;;;;;8466142;28;20356;-43
2022/07/08 05:45:45;;;;;;;;;;;24.60;41.40;;;;;;8465979;28;19939;-43
2022/07/08 05:49:46;;;;;;;;;;;24.50;41.30;;;;;;8465641;28;20280;-44
2022/07/08 05:53:46;;;;;;;;;;;24.50;41.30;;;;;;8465833;28;19920;-43
2022/07/08 05:57:47;;;;;;;;;;;24.50;41.40;;;;;;8465890;28;19977;-41
2022/07/08 06:01:47;;;;;;;;;;;24.50;41.50;;;;;;8465130;28;19918;-42
2022/07/08 06:05:48;;;;;;;;;;;24.40;41.50;;;;;;8465515;28;19912;-42
2022/07/08 06:09:48;;;;;;;;;;;24.40;41.60;;;;;;8465566;28;19908;-43
2022/07/08 06:13:49;;;;;;;;;;;24.40;41.60;;;;;;8464794;28;19993;-43
2022/07/08 06:17:50;;;;;;;;;;;24.30;41.60;;;;;;8464286;28;20007;-42
2022/07/08 06:21:50;;;;;;;;;;;24.30;41.60;;;;;;8465148;28;19912;-42
2022/07/08 06:25:51;;;;;;;;;;;24.30;41.60;;;;;;8464419;28;19951;-43
2022/07/08 06:29:51;;;;;;;;;;;24.30;41.60;;;;;;8464961;28;19919;-43
2022/07/08 06:33:56;;;;;;;;;;;24.30;41.60;;;;;;8464666;28;19930;-43
2022/07/08 06:37:56;;;;;;;;;;;24.30;41.60;;;;;;8464075;28;20424;-43
2022/07/08 06:41:57;;;;;;;;;;;24.30;41.60;;;;;;8464582;28;19965;-44
2022/07/08 06:45:57;;;;;;;;;;;24.30;41.60;;;;;;8464403;28;19919;-43
2022/07/08 06:49:58;;;;;;;;;;;24.30;41.60;;;;;;8463798;28;20353;-43
2022/07/08 06:58:19;;;;;;;;;;;24.30;41.60;;;;;;8464068;28;19918;-42
2022/07/08 07:02:20;;;;;;;;;;;24.30;41.60;;;;;;8463242;28;19936;-42
2022/07/08 07:06:20;;;;;;;;;;;24.30;41.60;;;;;;8462184;28;20178;-43
2022/07/08 07:10:20;;;;;;;;;;;24.30;41.60;;;;;;8463733;28;20280;-42
2022/07/08 07:14:21;;;;;;;;;;;24.30;41.60;;;;;;8463082;28;19934;-42
2022/07/08 07:18:21;;;;;;;;;;;24.20;41.60;;;;;;8463532;28;19916;-43
2022/07/08 07:22:22;;;;;;;;;;;24.20;41.60;;;;;;8463807;28;19915;-43
2022/07/08 07:26:22;;;;;;;;;;;24.30;41.60;;;;;;8462946;28;19908;-43
2022/07/08 07:30:25;;;;;;;;;;;24.20;41.60;;;;;;8468115;28;19907;-43
2022/07/08 07:34:25;;;;;;;;;;;24.20;41.50;;;;;;8469794;28;20357;-43
2022/07/08 07:38:26;;;;;;;;;;;24.20;41.60;;;;;;8470122;28;19912;-43
2022/07/08 07:42:26;;;;;;;;;;;24.20;41.60;;;;;;8470254;28;19911;-42
2022/07/08 07:46:27;;;;;;;;;;;24.20;41.60;;;;;;8469449;28;19953;-42
2022/07/08 07:50:27;;;;;;;;;;;24.20;41.60;;;;;;8470049;28;19908;-43
2022/07/08 07:54:27;;;;;;;;;;;24.30;41.60;;;;;;8469708;28;19958;-43
2022/07/08 07:58:28;;;;;;;;;;;24.30;41.50;;;;;;8469260;28;20482;-44
2022/07/08 08:02:28;;;;;;;;;;;24.30;41.50;;;;;;8470054;28;19958;-43
2022/07/08 08:06:29;;;;;;;;;;;24.30;41.50;;;;;;8469568;28;19908;-43
2022/07/08 08:10:29;;;;;;;;;;;24.30;41.60;;;;;;8468794;28;19912;-44
2022/07/08 08:14:30;;;;;;;;;;;24.30;41.50;;;;;;8468717;28;20325;-44
2022/07/08 08:18:30;;;;;;;;;;;24.30;41.60;;;;;;8468942;28;19918;-43
2022/07/08 08:22:31;;;;;;;;;;;24.40;41.60;;;;;;8468419;28;19912;-43
2022/07/08 08:26:31;;;;;;;;;;;24.40;41.60;;;;;;8468838;28;19942;-43
2022/07/08 08:30:32;;;;;;;;;;;24.40;41.60;;;;;;8468306;28;19919;-43
2022/07/08 08:34:32;;;;;;;;;;;24.40;41.60;;;;;;8467788;28;19923;-43
2022/07/08 08:38:33;;;;;;;;;;;24.40;41.60;;;;;;8468320;28;19918;-45
2022/07/08 08:42:33;;;;;;;;;;;24.40;41.60;;;;;;8467078;28;19911;-44
2022/07/08 08:46:35;;;;;;;;;;;24.50;41.60;;;;;;8467496;28;19960;-44
2022/07/08 08:50:53;;;;;;;;;;;24.50;41.60;;;;;;8467432;28;19911;-44
2022/07/08 08:54:54;;;;;;;;;;;24.50;41.60;;;;;;8467715;28;20448;-44
2022/07/08 08:58:55;;;;;;;;;;;24.50;41.60;;;;;;8467109;28;19912;-43
2022/07/08 09:02:56;;;;;;;;;;;24.50;41.60;;;;;;8467676;28;20372;-44
2022/07/08 09:06:58;;;;;;;;;;;24.50;41.60;;;;;;8467422;28;19907;-43
2022/07/08 09:10:59;;;;;;;;;;;24.50;41.60;;;;;;8467052;28;19907;-44
2022/07/08 09:15:01;;;;;;;;;;;24.60;41.70;;;;;;8467169;28;19912;-43
2022/07/08 09:19:14;;;;;;;;;;;24.60;41.60;;;;;;8467285;28;19916;-43
2022/07/08 09:23:16;;;;;;;;;;;24.60;41.70;;;;;;8466415;28;19912;-44
2022/07/08 09:27:17;;;;;;;;;;;24.60;41.60;;;;;;8467055;28;19994;-43
2022/07/08 09:31:17;;;;;;;;;;;24.60;41.60;;;;;;8466875;28;19916;-43
2022/07/08 09:35:17;;;;;;;;;;;24.60;41.60;;;;;;8465956;28;20006;-43
2022/07/08 09:39:27;;;;;;;;;;;24.70;41.60;;;;;;8466645;28;19911;-43
2022/07/08 09:43:28;;;;;;;;;;;24.70;41.60;;;;;;8465912;28;20041;-44
2022/07/08 09:47:32;;;;;;;;;;;24.70;41.60;;;;;;8466405;28;19908;-44
2022/07/08 09:51:35;;;;;;;;;;;24.70;41.60;;;;;;8465984;28;20022;-44
2022/07/08 09:55:38;;;;;;;;;;;24.70;41.50;;;;;;8465446;28;19911;-44
2022/07/08 09:59:38;;;;;;;;;;;24.80;41.50;;;;;;8465903;28;19920;-43
2022/07/08 10:03:39;;;;;;;;;;;24.80;41.50;;;;;;8465313;28;19941;-43
2022/07/08 10:07:39;;;;;;;;;;;24.80;41.60;;;;;;8464633;28;19972;-43
2022/07/08 10:11:40;;;;;;;;;;;24.80;41.50;;;;;;8464247;28;19915;-43
2022/07/08 10:15:42;;;;;;;;;;;24.90;41.50;;;;;;8465221;28;19912;-44
2022/07/08 10:19:44;;;;;;;;;;;24.80;41.50;;;;;;8464209;28;19918;-43
2022/07/08 10:23:45;;;;;;;;;;;24.90;41.50;;;;;;8464722;28;20361;-44
2022/07/08 10:27:46;;;;;;;;;;;24.90;41.40;;;;;;8464743;28;20321;-44
2022/07/08 10:31:51;;;;;;;;;;;25.00;41.50;;;;;;8464247;28;19919;-43
2022/07/08 10:36:02;;;;;;;;;;;25.00;41.50;;;;;;8464418;28;19922;-43
2022/07/08 10:40:03;;;;;;;;;;;25.00;41.40;;;;;;8464480;28;20280;-43
2022/07/08 10:44:05;;;;;;;;;;;25.00;41.40;;;;;;8463844;28;19911;-42
2022/07/08 10:48:08;;;;;;;;;;;25.00;41.30;;;;;;8464085;28;19914;-42
2022/07/08 10:52:09;;;;;;;;;;;25.00;41.30;;;;;;8464153;28;19965;-42
2022/07/08 10:56:10;;;;;;;;;;;25.00;41.30;;;;;;8463172;28;19915;-43
2022/07/08 11:00:13;;;;;;;;;;;25.10;41.30;;;;;;8464181;28;20002;-43
2022/07/08 11:04:20;;;;;;;;;;;25.10;41.30;;;;;;8463347;28;19953;-42
2022/07/08 11:08:20;;;;;;;;;;;25.10;41.30;;;;;;8463165;28;19911;-43
2022/07/08 11:12:25;;;;;;;;;;;25.20;41.30;;;;;;8463546;28;19989;-43
2022/07/08 11:16:30;;;;;;;;;;;25.20;41.30;;;;;;8462626;28;20002;-44
2022/07/08 11:20:31;;;;;;;;;;;25.20;41.20;;;;;;8463123;28;20299;-43
2022/07/08 11:24:31;;;;;;;;;;;25.20;41.20;;;;;;8463261;28;19908;-44
2022/07/08 11:28:35;;;;;;;;;;;25.20;41.20;;;;;;8462766;28;19919;-43
2022/07/08 11:32:35;;;;;;;;;;;25.30;41.20;;;;;;8463434;28;19919;-43
2022/07/08 11:36:36;;;;;;;;;;;25.30;41.20;;;;;;8463363;28;19922;-42
2022/07/08 11:40:41;;;;;;;;;;;25.30;41.20;;;;;;8462805;28;19914;-43
2022/07/08 11:44:42;;;;;;;;;;;25.30;41.20;;;;;;8463279;28;19976;-43
2022/07/08 11:48:43;;;;;;;;;;;25.40;41.10;;;;;;8463081;28;19911;-43
2022/07/08 11:52:43;;;;;;;;;;;25.40;41.10;;;;;;8462885;28;19927;-43
2022/07/08 11:56:43;;;;;;;;;;;25.40;41.20;;;;;;8463007;28;19918;-43
2022/07/08 12:00:44;;;;;;;;;;;25.40;41.10;;;;;;8428062;28;19912;-44
2022/07/08 12:04:45;;;;;;;;;;;25.40;41.00;;;;;;8442870;28;19912;-43
2022/07/08 12:08:46;;;;;;;;;;;25.40;41.10;;;;;;8462917;28;19908;-43
2022/07/08 12:12:54;;;;;;;;;;;25.40;41.00;;;;;;8462665;28;20299;-44
2022/07/08 12:16:55;;;;;;;;;;;25.40;41.10;;;;;;8467259;28;19915;-44
2022/07/08 12:20:56;;;;;;;;;;;25.40;41.00;;;;;;8468842;28;19939;-44
2022/07/08 12:25:01;;;;;;;;;;;25.40;41.00;;;;;;8468852;28;20271;-43
2022/07/08 12:29:11;;;;;;;;;;;25.40;41.00;;;;;;8468299;28;19923;-43
2022/07/08 12:33:11;;;;;;;;;;;25.40;41.10;;;;;;8468767;28;19915;-43
2022/07/08 12:37:21;;;;;;;;;;;25.50;41.10;;;;;;8468540;28;19968;-43
2022/07/08 12:41:21;;;;;;;;;;;25.50;41.10;;;;;;8467806;28;19916;-43
2022/07/08 12:45:26;;;;;;;;;;;25.50;41.10;;;;;;8468210;28;19916;-43
2022/07/08 12:49:27;;;;;;;;;;;25.50;41.00;;;;;;8467653;28;19942;-43
2022/07/08 12:53:28;;;;;;;;;;;25.50;41.10;;;;;;8467916;28;19915;-43
2022/07/08 12:57:28;;;;;;;;;;;25.50;41.10;;;;;;8467985;28;19912;-43
2022/07/08 13:01:28;;;;;;;;;;;25.60;41.10;;;;;;8465876;28;20006;-42
2022/07/08 13:05:29;;;;;;;;;;;25.60;41.10;;;;;;8459317;27;19916;-43
2022/07/08 13:09:29;;;;;;;;;;;25.60;41.10;;;;;;8457070;27;19965;-43
2022/07/08 13:13:30;;;;;;;;;;;25.60;41.10;;;;;;8462804;28;19941;-42
2022/07/08 13:17:30;;;;;;;;;;;25.70;41.10;;;;;;8457760;27;19918;-43
2022/07/08 13:21:31;;;;;;;;;;;25.60;41.10;;;;;;8462479;27;19912;-42
2022/07/08 13:25:31;;;;;;;;;;;25.70;41.10;;;;;;8462492;28;20429;-44
2022/07/08 13:29:32;;;;;;;;;;;25.70;41.10;;;;;;8463863;28;19927;-43
2022/07/08 13:33:32;;;;;;;;;;;25.70;41.10;;;;;;8463771;28;19931;-43
2022/07/08 13:37:33;;;;;;;;;;;25.70;41.10;;;;;;8447135;28;19919;-43
2022/07/08 13:41:33;;;;;;;;;;;25.70;41.10;;;;;;8458948;28;19916;-42
2022/07/08 13:45:34;;;;;;;;;;;25.70;41.10;;;;;;8451721;27;20415;-43
2022/07/08 13:49:34;;;;;;;;;;;25.70;41.10;;;;;;8446033;28;19915;-42
2022/07/08 13:53:35;;;;;;;;;;;25.70;41.00;;;;;;8449825;27;19919;-43
2022/07/08 13:57:35;;;;;;;;;;;25.70;41.00;;;;;;8461216;28;20356;-44
2022/07/08 14:01:36;;;;;;;;;;;25.80;41.10;;;;;;8460416;28;19911;-43
2022/07/08 14:05:36;;;;;;;;;;;25.80;41.00;;;;;;8459992;28;19911;-43
2022/07/08 14:09:37;;;;;;;;;;;25.80;40.90;;;;;;8462282;28;19912;-42
2022/07/08 14:13:37;;;;;;;;;;;25.80;41.00;;;;;;8462562;28;19919;-43
2022/07/08 14:17:37;;;;;;;;;;;25.90;41.00;;;;;;8452338;28;20369;-43
2022/07/08 14:21:38;;;;;;;;;;;25.80;40.90;;;;;;8461032;28;19918;-42
2022/07/08 14:25:39;;;;;;;;;;;25.90;41.00;;;;;;8457451;28;19951;-44
2022/07/08 14:29:40;;;;;;;;;;;25.90;40.90;;;;;;8458566;28;19916;-43
2022/07/08 14:33:40;;;;;;;;;;;25.90;40.90;;;;;;8455640;28;20311;-44
2022/07/08 14:37:41;;;;;;;;;;;25.90;40.90;;;;;;8450070;28;19912;-42
2022/07/08 14:41:41;;;;;;;;;;;25.90;40.80;;;;;;8460578;28;19998;-43
2022/07/08 14:45:42;;;;;;;;;;;25.90;40.80;;;;;;8449293;27;19920;-43
2022/07/08 14:49:42;;;;;;;;;;;25.90;40.80;;;;;;8457002;28;20014;-44
2022/07/08 14:53:42;;;;;;;;;;;25.90;40.80;;;;;;8454255;27;19963;-45
2022/07/08 14:57:43;;;;;;;;;;;25.90;40.80;;;;;;8455887;28;19956;-42
2022/07/08 15:01:44;;;;;;;;;;;25.90;40.70;;;;;;8459636;28;19973;-44
2022/07/08 15:05:44;;;;;;;;;;;25.90;40.70;;;;;;8459263;28;19912;-43
2022/07/08 15:09:44;;;;;;;;;;;25.90;40.80;;;;;;8453605;27;19911;-43
2022/07/08 15:13:45;;;;;;;;;;;26.00;40.80;;;;;;8450103;28;19920;-42
2022/07/08 15:17:45;;;;;;;;;;;26.00;40.80;;;;;;8455478;28;19912;-43
2022/07/08 15:21:46;;;;;;;;;;;25.90;40.80;;;;;;8456572;28;19911;-44
2022/07/08 15:25:47;;;;;;;;;;;25.90;40.80;;;;;;8453379;28;20052;-44
2022/07/08 15:29:47;;;;;;;;;;;26.00;40.90;;;;;;8449379;28;19919;-43
2022/07/08 15:33:48;;;;;;;;;;;26.00;40.90;;;;;;8443120;28;19920;-45
2022/07/08 15:37:48;;;;;;;;;;;26.00;40.90;;;;;;8459429;28;19911;-43
2022/07/08 15:41:49;;;;;;;;;;;26.00;40.80;;;;;;8451276;28;19918;-44
2022/07/08 15:45:49;;;;;;;;;;;26.00;40.80;;;;;;8452472;28;20368;-43
2022/07/08 15:49:50;;;;;;;;;;;26.00;40.90;;;;;;8463229;28;19911;-44
2022/07/08 15:53:50;;;;;;;;;;;26.00;40.80;;;;;;8462439;27;19919;-41
2022/07/08 15:57:52;;;;;;;;;;;26.00;40.90;;;;;;8458270;28;19922;-40
2022/07/08 16:01:52;;;;;;;;;;;26.00;40.80;;;;;;8449067;28;19912;-44
2022/07/08 16:05:53;;;;;;;;;;;26.00;40.80;;;;;;8468505;28;20372;-44
2022/07/08 16:09:53;;;;;;;;;;;26.00;40.70;;;;;;8468798;28;20360;-43
2022/07/08 16:13:55;;;;;;;;;;;26.00;40.80;;;;;;8468876;28;19923;-43
2022/07/08 16:17:55;;;;;;;;;;;26.00;40.80;;;;;;8469293;28;19912;-43
2022/07/08 16:21:56;;;;;;;;;;;26.00;40.80;;;;;;8468908;28;19969;-43
2022/07/08 16:25:56;;;;;;;;;;;26.00;40.80;;;;;;8468482;28;20002;-42
2022/07/08 16:29:57;;;;;;;;;;;26.00;40.80;;;;;;8468987;28;19961;-44
2022/07/08 16:33:57;;;;;;;;;;;26.00;40.80;;;;;;8468953;28;19926;-44
2022/07/08 16:37:57;;;;;;;;;;;26.00;40.80;;;;;;8468025;28;20006;-43
2022/07/08 16:41:58;;;;;;;;;;;26.00;40.80;;;;;;8468389;28;19949;-43
2022/07/08 16:45:59;;;;;;;;;;;26.00;40.80;;;;;;8468336;28;19918;-44
2022/07/08 16:50:03;;;;;;;;;;;26.00;40.80;;;;;;8467773;28;19914;-41
2022/07/08 16:54:03;;;;;;;;;;;26.00;40.80;;;;;;8434493;28;20033;-43
2022/07/08 16:58:04;;;;;;;;;;;26.00;40.80;;;;;;8460052;28;19912;-44
2022/07/08 17:02:04;;;;;;;;;;;26.00;40.80;;;;;;8466304;28;19912;-44
2022/07/08 17:06:05;;;;;;;;;;;26.00;40.80;;;;;;8467620;28;20288;-44
2022/07/08 17:10:09;;;;;;;;;;;26.00;40.80;;;;;;8467896;28;19912;-43
2022/07/08 17:14:11;;;;;;;;;;;26.00;40.90;;;;;;8467150;28;19947;-43
2022/07/08 17:18:13;;;;;;;;;;;25.90;40.80;;;;;;8467352;28;20010;-45
2022/07/08 17:22:13;;;;;;;;;;;26.00;40.90;;;;;;8467379;28;19915;-45
2022/07/08 17:26:14;;;;;;;;;;;26.00;40.90;;;;;;8448294;28;20326;-44
2022/07/08 17:30:14;;;;;;;;;;;26.00;40.90;;;;;;8432070;28;20364;-44
2022/07/08 17:34:15;;;;;;;;;;;25.90;40.90;;;;;;8467057;28;20387;-44
2022/07/08 17:38:15;;;;;;;;;;;25.90;40.90;;;;;;8466100;28;19912;-48
2022/07/08 17:42:19;;;;;;;;;;;26.00;41.00;;;;;;8448134;28;19986;-43
2022/07/08 17:46:19;;;;;;;;;;;26.00;41.00;;;;;;8448051;28;20040;-43
2022/07/08 17:50:20;;;;;;;;;;;25.90;41.00;;;;;;8465994;28;20334;-43
2022/07/08 17:54:20;;;;;;;;;;;25.90;41.00;;;;;;8466264;28;19920;-43
2022/07/08 17:58:21;;;;;;;;;;;25.90;41.00;;;;;;8466026;28;19922;-44
2022/07/08 18:02:21;;;;;;;;;;;25.90;40.90;;;;;;8465291;28;19923;-43
2022/07/08 18:06:22;;;;;;;;;;;25.90;41.00;;;;;;8465630;28;20010;-43
2022/07/08 18:10:23;;;;;;;;;;;25.90;40.90;;;;;;8465879;28;19911;-43
2022/07/08 18:14:23;;;;;;;;;;;25.90;40.90;;;;;;8464893;28;19981;-44
2022/07/08 18:18:24;;;;;;;;;;;25.90;41.00;;;;;;8447242;28;20420;-44
2022/07/08 18:22:24;;;;;;;;;;;25.90;40.90;;;;;;8464828;28;20388;-43
2022/07/08 18:26:25;;;;;;;;;;;25.90;40.90;;;;;;8465010;28;19911;-43
2022/07/08 18:30:25;;;;;;;;;;;25.90;41.00;;;;;;8465302;28;19915;-43
2022/07/08 18:34:31;;;;;;;;;;;25.90;41.00;;;;;;8464398;28;20006;-42
2022/07/08 18:38:31;;;;;;;;;;;25.90;41.00;;;;;;8464937;28;20296;-43
2022/07/08 18:42:31;;;;;;;;;;;25.80;40.80;;;;;;8477321;27;19919;-44
2022/07/08 18:46:32;;;;;;;;;;;25.90;41.00;;;;;;8491210;27;20289;-43
2022/07/08 18:50:32;;;;;;;;;;;25.90;41.00;;;;;;8464484;28;19915;-43
2022/07/08 18:54:33;;;;;;;;;;;25.90;41.00;;;;;;8464290;28;19932;-44
2022/07/08 18:58:37;;;;;;;;;;;25.80;40.90;;;;;;8463661;28;20357;-44
2022/07/08 19:02:37;;;;;;;;;;;25.80;40.90;;;;;;8463890;28;19941;-43
2022/07/08 19:06:38;;;;;;;;;;;25.80;40.90;;;;;;8462965;28;20276;-43
2022/07/08 19:10:38;;;;;;;;;;;25.80;40.90;;;;;;8463746;28;19914;-44
2022/07/08 19:14:39;;;;;;;;;;;25.80;41.00;;;;;;8464284;28;19926;-44
2022/07/08 19:18:39;;;;;;;;;;;25.80;41.00;;;;;;8463637;28;19965;-44
2022/07/08 19:22:40;;;;;;;;;;;25.80;41.60;;;;;;8463517;28;19912;-44
2022/07/08 19:26:40;;;;;;;;;;;25.80;41.00;;;;;;8463313;28;19911;-43
2022/07/08 19:30:41;;;;;;;;;;;25.80;41.00;;;;;;8463972;28;19908;-44
2022/07/08 19:34:41;;;;;;;;;;;25.70;41.00;;;;;;8462973;28;19919;-44
2022/07/08 19:38:42;;;;;;;;;;;25.80;41.00;;;;;;8463548;28;19912;-44
2022/07/08 19:42:42;;;;;;;;;;;25.70;41.00;;;;;;8463194;28;20010;-44
2022/07/08 19:46:43;;;;;;;;;;;25.70;41.00;;;;;;8462793;28;19915;-44
2022/07/08 19:50:46;;;;;;;;;;;25.70;41.00;;;;;;8463604;28;19919;-43
2022/07/08 19:54:46;;;;;;;;;;;25.70;41.00;;;;;;8463124;28;19920;-44
2022/07/08 19:58:47;;;;;;;;;;;25.70;41.10;;;;;;8462691;28;19912;-44
2022/07/08 20:02:47;;;;;;;;;;;25.70;41.60;;;;;;8462889;28;19912;-43
2022/07/08 20:06:47;;;;;;;;;;;25.60;40.90;;;;;;8463145;28;19912;-44
2022/07/08 20:10:48;;;;;;;;;;;25.70;41.00;;;;;;8462544;28;19987;-43
2022/07/08 20:14:49;;;;;;;;;;;25.60;40.90;;;;;;8462682;28;19926;-42
2022/07/08 20:18:49;;;;;;;;;;;25.60;40.90;;;;;;8462668;28;20380;-43
2022/07/08 20:22:50;;;;;;;;;;;25.60;40.90;;;;;;8462174;28;19911;-42
2022/07/08 20:26:53;;;;;;;;;;;25.60;40.90;;;;;;8462800;28;19958;-43
2022/07/08 20:30:53;;;;;;;;;;;25.60;40.90;;;;;;8462741;28;19981;-43
2022/07/08 20:34:55;;;;;;;;;;;25.60;40.90;;;;;;8462054;28;19919;-43
2022/07/08 20:38:56;;;;;;;;;;;25.60;40.80;;;;;;8467558;28;19912;-43
2022/07/08 20:42:57;;;;;;;;;;;25.60;40.80;;;;;;8468524;28;19914;-44
2022/07/08 20:46:57;;;;;;;;;;;25.60;40.80;;;;;;8467693;28;19950;-43
2022/07/08 20:50:58;;;;;;;;;;;25.60;40.90;;;;;;8468646;28;19907;-43
2022/07/08 20:54:59;;;;;;;;;;;25.60;40.80;;;;;;8467867;28;19926;-42
2022/07/08 20:59:00;;;;;;;;;;;25.60;40.80;;;;;;8467608;28;20348;-43
2022/07/08 21:03:00;;;;;;;;;;;25.50;40.80;;;;;;8468097;28;19933;-42
2022/07/08 21:07:00;;;;;;;;;;;25.60;40.80;;;;;;8467754;28;19927;-43
2022/07/08 21:11:01;;;;;;;;;;;25.50;40.80;;;;;;8467449;28;20283;-43
2022/07/08 21:15:02;;;;;;;;;;;25.50;40.80;;;;;;8467561;28;20372;-43
2022/07/08 21:19:02;;;;;;;;;;;25.50;40.80;;;;;;8467511;28;20356;-43
2022/07/08 21:23:03;;;;;;;;;;;25.50;40.80;;;;;;8466777;28;20449;-43
2022/07/08 21:27:03;;;;;;;;;;;25.50;40.70;;;;;;8467162;28;19911;-43
2022/07/08 21:31:04;;;;;;;;;;;25.50;40.80;;;;;;8467214;28;20562;-43
2022/07/08 21:35:04;;;;;;;;;;;25.50;40.80;;;;;;8466309;28;20307;-44
2022/07/08 21:39:05;;;;;;;;;;;25.50;40.80;;;;;;8466953;28;20292;-43
2022/07/08 21:43:06;;;;;;;;;;;25.40;40.70;;;;;;8466628;28;19916;-43
2022/07/08 21:47:06;;;;;;;;;;;25.40;40.80;;;;;;8465565;28;20006;-43
2022/07/08 21:51:07;;;;;;;;;;;25.50;40.80;;;;;;8466513;28;19915;-43
2022/07/08 21:55:11;;;;;;;;;;;25.40;40.80;;;;;;8466247;28;19944;-43
2022/07/08 21:59:11;;;;;;;;;;;25.40;40.70;;;;;;8465627;28;19912;-43
2022/07/08 22:03:12;;;;;;;;;;;25.40;40.70;;;;;;8465184;28;19957;-42
2022/07/08 22:07:12;;;;;;;;;;;25.40;40.70;;;;;;8465602;28;19915;-44
2022/07/08 22:11:12;;;;;;;;;;;25.40;40.70;;;;;;8452218;28;20321;-43
2022/07/08 22:15:13;;;;;;;;;;;25.40;40.70;;;;;;8457743;28;19927;-44
2022/07/08 22:19:13;;;;;;;;;;;25.40;40.70;;;;;;8465382;28;19916;-44
2022/07/08 22:23:14;;;;;;;;;;;25.40;40.60;;;;;;8464638;28;19911;-44
2022/07/08 22:27:14;;;;;;;;;;;25.40;40.70;;;;;;8465214;28;19976;-43
2022/07/08 22:31:15;;;;;;;;;;;25.40;40.70;;;;;;8465274;28;20333;-43
2022/07/08 22:35:16;;;;;;;;;;;25.30;40.70;;;;;;8464397;28;19927;-42
2022/07/08 22:39:16;;;;;;;;;;;25.30;40.70;;;;;;8464959;28;19919;-42
2022/07/08 22:43:17;;;;;;;;;;;25.40;41.30;;;;;;8464489;28;19907;-44
2022/07/08 22:47:17;;;;;;;;;;;25.30;40.60;;;;;;8464376;28;20276;-43
2022/07/08 22:51:18;;;;;;;;;;;25.30;40.70;;;;;;8464420;28;19912;-43
2022/07/08 22:55:18;;;;;;;;;;;25.30;40.60;;;;;;8464284;28;19920;-43
2022/07/08 22:59:19;;;;;;;;;;;25.30;40.70;;;;;;8463202;28;19918;-43
2022/07/08 23:03:19;;;;;;;;;;;25.30;40.70;;;;;;8464075;28;19908;-42
2022/07/08 23:07:19;;;;;;;;;;;25.30;40.70;;;;;;8464371;28;19912;-43
2022/07/08 23:11:20;;;;;;;;;;;25.20;40.70;;;;;;8463457;28;19911;-44
2022/07/08 23:15:20;;;;;;;;;;;25.20;40.70;;;;;;8463997;28;20420;-43
2022/07/08 23:19:21;;;;;;;;;;;25.30;40.70;;;;;;8463785;28;19911;-43
2022/07/08 23:23:21;;;;;;;;;;;25.20;40.70;;;;;;8463073;28;19923;-43